createdAt,value
2018-03-01T00:00:09.349Z,15.16
2018-03-01T00:01:09.307Z,15.06
2018-03-01T00:02:09.265Z,14.77
2018-03-01T00:03:09.223Z,14.97
2018-03-01T00:04:09.183Z,14.87
2018-03-01T00:05:09.142Z,14.97
2018-03-01T00:06:09.097Z,14.87
2018-03-01T00:07:09.058Z,14.87
2018-03-01T00:08:09.009Z,15.06
2018-03-01T00:09:08.976Z,14.87
2018-03-01T00:10:08.930Z,14.97
2018-03-01T00:11:08.886Z,14.67
2018-03-01T00:12:08.848Z,14.87
2018-03-01T00:13:08.803Z,14.87
2018-03-01T00:14:08.761Z,15.06
2018-03-01T00:15:08.729Z,14.97
2018-03-01T00:16:08.676Z,15.44
2018-03-01T00:17:08.634Z,14.97
2018-03-01T00:18:08.596Z,14.97
2018-03-01T00:19:08.550Z,14.97
2018-03-01T00:20:08.504Z,14.87
2018-03-01T00:21:08.466Z,14.97
2018-03-01T00:22:08.432Z,14.87
2018-03-01T00:23:08.382Z,14.67
2018-03-01T00:24:08.340Z,15.06
2018-03-01T00:25:08.299Z,14.97
2018-03-01T00:26:08.256Z,14.67
2018-03-01T00:27:08.213Z,14.67
2018-03-01T00:28:08.173Z,14.58
2018-03-01T00:29:08.132Z,15.06
2018-03-01T00:30:08.089Z,14.48
2018-03-01T00:31:08.046Z,14.58
2018-03-01T00:32:08.004Z,14.58
2018-03-01T00:33:07.964Z,14.87
2018-03-01T00:34:07.921Z,14.48
2018-03-01T00:35:07.878Z,14.39
2018-03-01T00:36:07.837Z,14.58
2018-03-01T00:37:07.795Z,14.39
2018-03-01T00:38:07.754Z,14.77
2018-03-01T00:39:07.711Z,14.87
2018-03-01T00:40:07.671Z,14.77
2018-03-01T00:41:07.625Z,14.67
2018-03-01T00:42:08.616Z,14.97
2018-03-01T00:43:07.543Z,14.58
2018-03-01T00:44:07.500Z,14.48
2018-03-01T00:45:07.459Z,14.48
2018-03-01T00:46:07.416Z,14.87
2018-03-01T00:47:07.374Z,14.67
2018-03-01T00:48:07.333Z,14.48
2018-03-01T00:49:07.291Z,14.48
2018-03-01T00:50:07.250Z,14.39
2018-03-01T00:51:07.213Z,14.97
2018-03-01T00:52:07.165Z,14.58
2018-03-01T00:53:07.124Z,14.87
2018-03-01T00:54:07.081Z,14.97
2018-03-01T00:55:07.040Z,14.67
2018-03-01T00:56:06.996Z,14.77
2018-03-01T00:57:06.956Z,14.97
2018-03-01T00:58:06.916Z,14.87
2018-03-01T00:59:06.871Z,14.67
2018-03-01T01:00:06.831Z,14.87
2018-03-01T01:01:06.788Z,14.87
2018-03-01T01:02:06.749Z,14.87
2018-03-01T01:03:06.704Z,14.48
2018-03-01T01:04:06.662Z,14.67
2018-03-01T01:05:06.619Z,14.77
2018-03-01T01:06:06.578Z,14.48
2018-03-01T01:07:06.536Z,14.77
2018-03-01T01:08:06.495Z,14.48
2018-03-01T01:09:06.452Z,14.77
2018-03-01T01:10:06.411Z,14.77
2018-03-01T01:11:06.369Z,15.06
2018-03-01T01:12:06.326Z,14.48
2018-03-01T01:13:06.285Z,14.39
2018-03-01T01:14:06.243Z,14.58
2018-03-01T01:15:06.204Z,14.67
2018-03-01T01:16:06.158Z,14.48
2018-03-01T01:17:06.116Z,14.77
2018-03-01T01:18:06.084Z,14.39
2018-03-01T01:19:06.032Z,14.87
2018-03-01T01:20:05.991Z,14.77
2018-03-01T01:21:05.946Z,15.06
2018-03-01T01:22:05.901Z,15.06
2018-03-01T01:23:05.864Z,14.87
2018-03-01T01:24:05.821Z,14.77
2018-03-01T01:25:05.780Z,14.77
2018-03-01T01:26:05.739Z,14.58
2018-03-01T01:27:05.695Z,14.67
2018-03-01T01:28:05.653Z,14.87
2018-03-01T01:29:05.614Z,15.16
2018-03-01T01:30:05.569Z,15.06
2018-03-01T01:31:05.524Z,14.97
2018-03-01T01:32:05.488Z,14.48
2018-03-01T01:33:05.445Z,14.97
2018-03-01T01:34:05.406Z,14.77
2018-03-01T01:35:05.360Z,15.06
2018-03-01T01:36:05.318Z,14.77
2018-03-01T01:37:05.278Z,14.87
2018-03-01T01:38:05.234Z,14.58
2018-03-01T01:39:05.191Z,14.77
2018-03-01T01:40:05.153Z,14.58
2018-03-01T01:41:05.113Z,14.67
2018-03-01T01:42:05.065Z,14.58
2018-03-01T01:43:05.027Z,14.29
2018-03-01T01:44:04.981Z,14.39
2018-03-01T01:45:04.945Z,14.87
2018-03-01T01:46:04.898Z,14.67
2018-03-01T01:47:04.851Z,14.67
2018-03-01T01:48:04.811Z,14.58
2018-03-01T01:49:04.769Z,14.67
2018-03-01T01:50:04.729Z,14.20
2018-03-01T01:51:04.690Z,14.29
2018-03-01T01:52:04.647Z,14.39
2018-03-01T01:53:04.606Z,14.39
2018-03-01T01:54:04.566Z,14.39
2018-03-01T01:55:04.520Z,14.77
2018-03-01T01:56:04.476Z,14.77
2018-03-01T01:57:04.435Z,14.77
2018-03-01T01:58:04.397Z,14.67
2018-03-01T01:59:04.352Z,14.67
2018-03-01T02:00:04.310Z,14.67
2018-03-01T02:01:04.266Z,14.39
2018-03-01T02:02:04.228Z,14.29
2018-03-01T02:03:04.188Z,14.48
2018-03-01T02:04:04.244Z,14.39
2018-03-01T02:05:04.100Z,14.67
2018-03-01T02:06:04.057Z,14.48
2018-03-01T02:07:04.017Z,14.39
2018-03-01T02:08:03.971Z,14.39
2018-03-01T02:09:03.932Z,14.77
2018-03-01T02:10:03.886Z,14.48
2018-03-01T02:11:03.851Z,14.29
2018-03-01T02:12:03.806Z,14.20
2018-03-01T02:13:03.763Z,14.29
2018-03-01T02:14:03.723Z,14.20
2018-03-01T02:15:03.681Z,14.58
2018-03-01T02:16:03.643Z,14.67
2018-03-01T02:17:03.597Z,14.87
2018-03-01T02:18:03.554Z,14.67
2018-03-01T02:19:03.512Z,14.39
2018-03-01T02:20:03.473Z,14.77
2018-03-01T02:21:03.429Z,14.77
2018-03-01T02:22:03.388Z,14.48
2018-03-01T02:23:03.345Z,14.67
2018-03-01T02:24:03.306Z,14.39
2018-03-01T02:25:03.261Z,14.39
2018-03-01T02:26:03.219Z,14.29
2018-03-01T02:27:03.178Z,14.48
2018-03-01T02:28:03.135Z,14.39
2018-03-01T02:29:03.091Z,14.20
2018-03-01T02:30:03.052Z,14.58
2018-03-01T02:31:03.010Z,14.58
2018-03-01T02:32:02.969Z,14.58
2018-03-01T02:33:02.926Z,14.48
2018-03-01T02:34:02.882Z,14.77
2018-03-01T02:35:02.842Z,14.77
2018-03-01T02:36:02.801Z,14.48
2018-03-01T02:37:02.757Z,14.87
2018-03-01T02:38:02.717Z,14.77
2018-03-01T02:39:02.673Z,14.97
2018-03-01T02:40:02.632Z,15.06
2018-03-01T02:41:02.589Z,14.87
2018-03-01T02:42:02.548Z,14.87
2018-03-01T02:43:02.502Z,14.58
2018-03-01T02:44:02.462Z,14.67
2018-03-01T02:45:02.422Z,14.87
2018-03-01T02:46:02.378Z,14.97
2018-03-01T02:47:02.344Z,14.97
2018-03-01T02:48:02.293Z,14.97
2018-03-01T02:49:02.254Z,14.97
2018-03-01T02:50:02.211Z,14.97
2018-03-01T02:51:02.169Z,15.16
2018-03-01T02:52:02.133Z,14.77
2018-03-01T02:53:02.084Z,14.87
2018-03-01T02:54:02.046Z,14.87
2018-03-01T02:55:02.015Z,14.87
2018-03-01T02:56:01.959Z,14.87
2018-03-01T02:57:01.916Z,14.87
2018-03-01T02:58:01.875Z,14.77
2018-03-01T02:59:01.832Z,14.77
2018-03-01T03:00:01.790Z,14.97
2018-03-01T03:01:01.748Z,14.77
2018-03-01T03:02:01.721Z,14.58
2018-03-01T03:03:01.664Z,14.77
2018-03-01T03:04:01.622Z,14.67
2018-03-01T03:05:01.580Z,14.87
2018-03-01T03:06:01.537Z,15.06
2018-03-01T03:07:01.496Z,14.97
2018-03-01T03:08:01.453Z,14.87
2018-03-01T03:09:01.426Z,14.77
2018-03-01T03:10:01.369Z,15.06
2018-03-01T03:11:01.328Z,14.87
2018-03-01T03:12:01.285Z,14.58
2018-03-01T03:13:01.245Z,14.87
2018-03-01T03:14:01.202Z,14.58
2018-03-01T03:15:01.159Z,14.87
2018-03-01T03:16:01.116Z,14.58
2018-03-01T03:17:01.075Z,14.20
2018-03-01T03:18:01.033Z,14.20
2018-03-01T03:19:00.989Z,14.67
2018-03-01T03:20:00.948Z,14.48
2018-03-01T03:21:00.905Z,14.29
2018-03-01T03:22:00.865Z,14.87
2018-03-01T03:23:00.822Z,14.58
2018-03-01T03:24:00.780Z,14.67
2018-03-01T03:25:00.739Z,14.20
2018-03-01T03:26:00.695Z,14.87
2018-03-01T03:27:00.655Z,14.97
2018-03-01T03:28:00.611Z,14.48
2018-03-01T03:29:00.568Z,14.87
2018-03-01T03:30:00.528Z,14.58
2018-03-01T03:31:00.487Z,14.77
2018-03-01T03:32:00.443Z,14.58
2018-03-01T03:33:00.401Z,14.48
2018-03-01T03:34:00.359Z,14.67
2018-03-01T03:35:00.319Z,14.58
2018-03-01T03:36:00.274Z,14.39
2018-03-01T03:37:00.232Z,14.67
2018-03-01T03:38:00.192Z,14.58
2018-03-01T03:39:00.147Z,14.77
2018-03-01T03:40:00.114Z,14.67
2018-03-01T03:41:00.065Z,14.29
2018-03-01T03:42:00.023Z,14.48
2018-03-01T03:42:59.980Z,14.29
2018-03-01T03:43:59.937Z,14.77
2018-03-01T03:44:59.896Z,14.20
2018-03-01T03:45:59.859Z,14.20
2018-03-01T03:46:59.913Z,14.67
2018-03-01T03:47:59.770Z,14.77
2018-03-01T03:48:59.728Z,14.48
2018-03-01T03:49:59.689Z,14.48
2018-03-01T03:50:59.646Z,14.29
2018-03-01T03:51:59.603Z,14.48
2018-03-01T03:52:59.560Z,14.77
2018-03-01T03:53:59.521Z,14.77
2018-03-01T03:54:59.477Z,14.48
2018-03-01T03:55:59.437Z,14.29
2018-03-01T03:56:59.392Z,14.29
2018-03-01T03:57:59.351Z,14.29
2018-03-01T03:58:59.308Z,14.39
2018-03-01T03:59:59.265Z,14.20
2018-03-01T04:00:59.224Z,14.39
2018-03-01T04:01:59.183Z,14.20
2018-03-01T04:02:59.141Z,14.20
2018-03-01T04:03:59.099Z,14.48
2018-03-01T04:04:59.056Z,14.29
2018-03-01T04:05:59.018Z,14.29
2018-03-01T04:06:58.975Z,14.39
2018-03-01T04:07:58.931Z,14.48
2018-03-01T04:08:58.888Z,14.39
2018-03-01T04:09:58.846Z,14.29
2018-03-01T04:10:58.804Z,14.67
2018-03-01T04:11:58.768Z,14.58
2018-03-01T04:12:58.720Z,14.48
2018-03-01T04:13:58.679Z,14.39
2018-03-01T04:14:58.637Z,14.77
2018-03-01T04:15:58.594Z,14.48
2018-03-01T04:16:58.555Z,14.29
2018-03-01T04:17:58.512Z,14.58
2018-03-01T04:18:58.469Z,14.48
2018-03-01T04:19:58.431Z,14.58
2018-03-01T04:20:58.384Z,14.58
2018-03-01T04:21:58.343Z,14.87
2018-03-01T04:22:58.301Z,14.97
2018-03-01T04:23:58.258Z,14.67
2018-03-01T04:24:58.317Z,14.77
2018-03-01T04:25:58.174Z,14.77
2018-03-01T04:26:58.132Z,14.67
2018-03-01T04:27:58.090Z,14.48
2018-03-01T04:28:58.051Z,14.77
2018-03-01T04:29:58.008Z,14.67
2018-03-01T04:30:57.961Z,14.58
2018-03-01T04:31:57.926Z,14.58
2018-03-01T04:32:57.880Z,14.87
2018-03-01T04:33:57.838Z,14.48
2018-03-01T04:34:57.795Z,14.77
2018-03-01T04:35:57.757Z,14.29
2018-03-01T04:36:57.714Z,14.39
2018-03-01T04:37:57.669Z,14.39
2018-03-01T04:38:57.628Z,14.20
2018-03-01T04:39:57.590Z,14.00
2018-03-01T04:40:57.544Z,14.48
2018-03-01T04:41:57.502Z,14.20
2018-03-01T04:42:57.460Z,13.71
2018-03-01T04:43:57.416Z,14.00
2018-03-01T04:44:57.377Z,14.30
2018-03-01T04:45:57.331Z,14.11
2018-03-01T04:46:57.291Z,14.39
2018-03-01T04:47:57.249Z,13.92
2018-03-01T04:48:57.206Z,14.01
2018-03-01T04:49:57.164Z,14.20
2018-03-01T04:50:57.120Z,14.01
2018-03-01T04:51:57.083Z,14.39
2018-03-01T04:52:57.038Z,13.92
2018-03-01T04:53:56.992Z,14.20
2018-03-01T04:54:56.952Z,14.30
2018-03-01T04:55:56.911Z,13.82
2018-03-01T04:56:56.872Z,13.53
2018-03-01T04:57:56.832Z,14.01
2018-03-01T04:58:56.787Z,13.34
2018-03-01T04:59:56.746Z,13.92
2018-03-01T05:00:56.815Z,13.53
2018-03-01T05:01:56.662Z,13.34
2018-03-01T05:02:56.619Z,13.92
2018-03-01T05:03:56.577Z,14.11
2018-03-01T05:04:56.536Z,14.01
2018-03-01T05:05:56.493Z,13.92
2018-03-01T05:06:56.451Z,13.82
2018-03-01T05:07:56.409Z,13.82
2018-03-01T05:08:56.368Z,13.82
2018-03-01T05:09:56.326Z,14.11
2018-03-01T05:10:56.345Z,14.11
2018-03-01T05:11:56.243Z,13.72
2018-03-01T05:12:56.201Z,13.92
2018-03-01T05:13:56.158Z,14.11
2018-03-01T05:14:56.118Z,14.11
2018-03-01T05:15:56.076Z,14.11
2018-03-01T05:16:56.032Z,14.01
2018-03-01T05:17:55.992Z,13.82
2018-03-01T05:18:55.951Z,13.82
2018-03-01T05:19:55.910Z,14.01
2018-03-01T05:20:55.867Z,14.01
2018-03-01T05:21:55.825Z,13.63
2018-03-01T05:22:55.783Z,13.63
2018-03-01T05:23:55.742Z,13.53
2018-03-01T05:24:55.701Z,13.53
2018-03-01T05:25:55.664Z,13.63
2018-03-01T05:26:55.618Z,13.72
2018-03-01T05:27:55.578Z,13.63
2018-03-01T05:28:55.533Z,13.34
2018-03-01T05:29:55.493Z,13.53
2018-03-01T05:30:55.450Z,13.72
2018-03-01T05:31:55.409Z,13.34
2018-03-01T05:32:55.366Z,13.64
2018-03-01T05:33:55.326Z,13.82
2018-03-01T05:34:55.283Z,13.63
2018-03-01T05:35:55.248Z,13.35
2018-03-01T05:36:55.203Z,13.35
2018-03-01T05:37:55.159Z,13.44
2018-03-01T05:38:55.120Z,13.53
2018-03-01T05:39:55.076Z,13.54
2018-03-01T05:40:55.044Z,13.35
2018-03-01T05:41:54.993Z,13.25
2018-03-01T05:42:54.952Z,13.06
2018-03-01T05:43:54.910Z,13.25
2018-03-01T05:44:54.868Z,13.25
2018-03-01T05:45:54.829Z,13.35
2018-03-01T05:46:54.785Z,13.35
2018-03-01T05:47:54.743Z,13.15
2018-03-01T05:48:54.700Z,13.44
2018-03-01T05:49:54.658Z,13.35
2018-03-01T05:50:54.618Z,13.73
2018-03-01T05:51:54.576Z,13.35
2018-03-01T05:52:54.536Z,13.44
2018-03-01T05:53:54.495Z,13.35
2018-03-01T05:54:54.453Z,13.54
2018-03-01T05:55:54.412Z,13.35
2018-03-01T05:56:54.370Z,13.15
2018-03-01T05:57:54.328Z,13.15
2018-03-01T05:58:54.286Z,13.44
2018-03-01T05:59:54.244Z,13.54
2018-03-01T06:00:54.204Z,13.73
2018-03-01T06:01:54.162Z,13.54
2018-03-01T06:02:54.121Z,13.73
2018-03-01T06:03:54.079Z,13.44
2018-03-01T06:04:54.039Z,13.73
2018-03-01T06:05:53.997Z,13.54
2018-03-01T06:06:53.953Z,13.25
2018-03-01T06:07:53.913Z,13.35
2018-03-01T06:08:53.871Z,13.15
2018-03-01T06:09:53.831Z,13.54
2018-03-01T06:10:53.801Z,13.64
2018-03-01T06:11:53.748Z,13.73
2018-03-01T06:12:53.706Z,13.64
2018-03-01T06:13:53.665Z,13.82
2018-03-01T06:14:53.623Z,13.64
2018-03-01T06:15:53.597Z,14.11
2018-03-01T06:16:53.540Z,14.31
2018-03-01T06:17:53.498Z,14.11
2018-03-01T06:18:53.460Z,14.11
2018-03-01T06:19:53.417Z,14.79
2018-03-01T06:20:53.376Z,14.79
2018-03-01T06:21:53.341Z,14.88
2018-03-01T06:23:07.914Z,15.17
2018-03-01T06:23:53.258Z,14.89
2018-03-01T06:24:53.209Z,14.98
2018-03-01T06:25:53.175Z,14.79
2018-03-01T06:26:53.127Z,15.36
2018-03-01T06:27:53.085Z,15.17
2018-03-01T06:28:53.041Z,15.84
2018-03-01T06:29:53.009Z,15.84
2018-03-01T06:30:52.963Z,16.61
2018-03-01T06:31:52.921Z,16.42
2018-03-01T06:32:52.940Z,16.32
2018-03-01T06:33:52.844Z,16.62
2018-03-01T06:34:52.805Z,16.91
2018-03-01T06:35:52.755Z,17.19
2018-03-01T06:36:52.717Z,17.68
2018-03-01T06:37:52.673Z,17.77
2018-03-01T06:38:52.631Z,18.06
2018-03-01T06:39:52.589Z,18.16
2018-03-01T06:40:52.549Z,17.49
2018-03-01T06:41:52.507Z,17.19
2018-03-01T06:42:52.522Z,17.77
2018-03-01T06:43:52.444Z,17.77
2018-03-01T06:44:52.386Z,18.16
2018-03-01T06:45:52.343Z,18.54
2018-03-01T06:46:52.303Z,18.74
2018-03-01T06:47:52.261Z,18.65
2018-03-01T06:48:52.221Z,18.26
2018-03-01T06:49:52.178Z,17.69
2018-03-01T06:50:52.136Z,19.03
2018-03-01T06:51:52.095Z,18.65
2018-03-01T06:52:52.054Z,18.65
2018-03-01T06:53:52.014Z,18.16
2018-03-01T06:54:51.971Z,18.16
2018-03-01T06:55:51.933Z,17.69
2018-03-01T06:56:51.894Z,17.88
2018-03-01T06:57:51.858Z,18.07
2018-03-01T06:58:51.809Z,17.40
2018-03-01T06:59:51.767Z,17.79
2018-03-01T07:00:51.726Z,17.69
2018-03-01T07:01:51.684Z,17.21
2018-03-01T07:02:51.643Z,17.21
2018-03-01T07:03:51.612Z,17.31
2018-03-01T07:04:51.568Z,17.21
2018-03-01T07:05:51.558Z,16.73
2018-03-01T07:06:51.484Z,16.53
2018-03-01T07:07:51.470Z,16.63
2018-03-01T07:08:51.405Z,16.53
2018-03-01T07:09:51.364Z,16.72
2018-03-01T07:10:51.324Z,16.53
2018-03-01T07:11:51.282Z,16.53
2018-03-01T07:12:51.235Z,16.15
2018-03-01T07:13:51.202Z,16.53
2018-03-01T07:14:51.174Z,16.53
2018-03-01T07:15:51.119Z,16.05
2018-03-01T07:16:51.078Z,15.77
2018-03-01T07:17:51.053Z,16.05
2018-03-01T07:18:50.996Z,15.95
2018-03-01T07:19:50.959Z,16.05
2018-03-01T07:20:50.920Z,15.95
2018-03-01T07:21:50.876Z,15.57
2018-03-01T07:22:50.832Z,15.86
2018-03-01T07:23:50.787Z,15.67
2018-03-01T07:24:50.749Z,15.09
2018-03-01T07:25:50.710Z,15.77
2018-03-01T07:26:50.662Z,15.95
2018-03-01T07:27:50.631Z,15.67
2018-03-01T07:28:50.580Z,15.86
2018-03-01T07:29:50.540Z,16.72
2018-03-01T07:30:50.501Z,16.72
2018-03-01T07:31:50.465Z,16.15
2018-03-01T07:32:50.425Z,15.95
2018-03-01T07:33:50.384Z,15.77
2018-03-01T07:34:50.341Z,15.77
2018-03-01T07:35:50.312Z,15.86
2018-03-01T07:36:50.262Z,15.95
2018-03-01T07:37:50.221Z,16.15
2018-03-01T07:38:50.182Z,16.53
2018-03-01T07:39:50.142Z,15.86
2018-03-01T07:40:50.099Z,15.77
2018-03-01T07:41:50.053Z,15.09
2018-03-01T07:42:50.016Z,15.28
2018-03-01T07:43:49.974Z,15.77
2018-03-01T07:44:49.934Z,16.24
2018-03-01T07:45:49.907Z,16.05
2018-03-01T07:46:49.853Z,15.86
2018-03-01T07:47:49.807Z,15.67
2018-03-01T07:48:49.777Z,15.86
2018-03-01T07:49:49.728Z,15.86
2018-03-01T07:50:49.684Z,15.95
2018-03-01T07:51:49.637Z,15.86
2018-03-01T07:52:49.603Z,15.77
2018-03-01T07:53:49.566Z,15.77
2018-03-01T07:54:49.526Z,15.86
2018-03-01T07:55:49.485Z,15.67
2018-03-01T07:56:49.445Z,15.86
2018-03-01T07:57:49.417Z,15.95
2018-03-01T07:58:49.381Z,15.95
2018-03-01T07:59:49.320Z,16.15
2018-03-01T08:00:49.276Z,18.08
2018-03-01T08:01:49.243Z,0.00
2018-03-01T08:04:35.167Z,0.00
2018-03-01T08:05:35.102Z,0.00
2018-03-01T08:07:27.201Z,0.00
2018-03-01T08:08:27.134Z,0.00
2018-03-01T08:10:19.195Z,0.00
2018-03-01T08:11:19.178Z,0.00
2018-03-01T08:13:12.675Z,0.00
2018-03-01T08:14:12.623Z,0.00
2018-03-01T08:15:12.974Z,0.00
2018-03-01T08:16:12.524Z,0.00
2018-03-01T08:17:12.482Z,0.00
2018-03-01T08:18:12.445Z,0.00
2018-03-01T08:19:12.394Z,0.00
2018-03-01T08:20:12.352Z,0.00
2018-03-01T08:21:12.307Z,0.00
2018-03-01T08:22:12.261Z,0.00
2018-03-01T08:23:12.220Z,0.00
2018-03-01T08:24:12.174Z,0.00
2018-03-01T08:25:12.134Z,0.00
2018-03-01T08:26:12.091Z,0.00
2018-03-01T08:27:12.043Z,0.00
2018-03-01T08:28:12.000Z,0.00
2018-03-01T08:29:11.958Z,0.00
2018-03-01T08:30:11.915Z,0.00
2018-03-01T08:31:11.869Z,0.00
2018-03-01T08:32:11.827Z,0.00
2018-03-01T08:33:11.782Z,0.00
2018-03-01T08:34:11.747Z,0.00
2018-03-01T08:35:11.707Z,0.00
2018-03-01T08:36:11.650Z,0.00
2018-03-01T08:37:11.613Z,0.00
2018-03-01T08:38:11.566Z,0.00
2018-03-01T08:39:11.547Z,0.00
2018-03-01T08:40:11.478Z,0.00
2018-03-01T08:41:11.440Z,0.00
2018-03-01T08:42:11.392Z,0.00
2018-03-01T08:43:11.350Z,0.00
2018-03-01T08:44:11.309Z,0.00
2018-03-01T08:45:11.265Z,0.00
2018-03-01T08:46:11.246Z,0.00
2018-03-01T08:47:11.190Z,0.00
2018-03-01T08:48:11.963Z,0.00
2018-03-01T08:49:11.093Z,0.00
2018-03-01T08:50:11.049Z,0.00
2018-03-01T08:51:11.006Z,0.00
2018-03-01T08:52:10.963Z,0.00
2018-03-01T08:53:10.912Z,0.00
2018-03-01T08:54:10.867Z,0.00
2018-03-01T08:55:10.821Z,0.00
2018-03-01T08:56:10.780Z,0.00
2018-03-01T08:57:10.742Z,0.00
2018-03-01T08:58:10.764Z,0.00
2018-03-01T08:59:10.655Z,0.00
2018-03-01T09:00:10.608Z,0.00
2018-03-01T09:01:10.570Z,0.00
2018-03-01T09:02:10.526Z,0.00
2018-03-01T09:03:10.482Z,0.00
2018-03-01T09:04:10.437Z,0.00
2018-03-01T09:05:10.395Z,0.00
2018-03-01T09:06:10.353Z,0.00
2018-03-01T09:07:10.308Z,0.00
2018-03-01T09:08:10.260Z,0.00
2018-03-01T09:09:10.223Z,0.00
2018-03-01T09:10:10.174Z,0.00
2018-03-01T09:11:10.132Z,0.00
2018-03-01T09:12:10.094Z,0.00
2018-03-01T09:13:10.048Z,0.00
2018-03-01T09:14:10.005Z,0.00
2018-03-01T09:15:09.967Z,0.00
2018-03-01T09:16:09.916Z,0.00
2018-03-01T09:17:09.876Z,0.00
2018-03-01T09:18:09.833Z,0.00
2018-03-01T09:19:09.789Z,0.00
2018-03-01T09:20:09.748Z,0.00
2018-03-01T09:21:09.704Z,0.00
2018-03-01T09:22:09.673Z,0.00
2018-03-01T09:23:09.616Z,0.00
2018-03-01T09:24:09.567Z,0.00
2018-03-01T09:25:09.527Z,0.00
2018-03-01T09:26:09.492Z,0.00
2018-03-01T09:27:09.436Z,0.00
2018-03-01T09:28:09.389Z,0.00
2018-03-01T09:38:36.535Z,0.00
2018-03-01T09:39:36.471Z,0.00
2018-03-01T09:40:26.822Z,0.00
2018-03-01T09:41:26.760Z,0.00
2018-03-01T09:42:17.293Z,0.00
2018-03-01T09:43:59.435Z,0.00
2018-03-01T09:44:59.367Z,0.00
2018-03-01T09:46:51.407Z,0.00
2018-03-01T09:47:51.355Z,0.00
2018-03-01T09:49:43.407Z,0.00
2018-03-01T09:50:43.341Z,0.00
2018-03-01T10:21:01.838Z,12.01
2018-03-01T10:22:01.753Z,11.91
2018-03-01T10:23:53.550Z,12.98
2018-03-01T10:24:53.484Z,11.33
2018-03-01T10:26:45.766Z,12.49
2018-03-01T10:27:45.718Z,12.48
2018-03-01T10:28:45.677Z,13.16
2018-03-01T10:29:45.641Z,13.54
2018-03-01T10:30:45.653Z,13.34
2018-03-01T10:31:45.548Z,13.34
